createdAt,value
2023-02-27T00:02:09.365Z,66.30
2023-02-27T00:04:36.114Z,66.30
2023-02-27T00:07:04.546Z,66.50
2023-02-27T00:13:11.406Z,66.50
2023-02-27T00:15:41.002Z,66.50
2023-02-27T00:18:07.945Z,66.50
2023-02-27T00:20:37.987Z,66.50
2023-02-27T00:23:06.860Z,66.50
2023-02-27T00:25:33.822Z,66.50
2023-02-27T00:28:01.132Z,66.50
2023-02-27T00:30:27.808Z,66.50
2023-02-27T00:32:55.652Z,66.50
2023-02-27T00:35:22.516Z,66.70
2023-02-27T00:37:49.217Z,66.80
2023-02-27T00:40:17.879Z,66.90
2023-02-27T00:42:46.208Z,66.80
2023-02-27T00:45:14.854Z,66.80
2023-02-27T00:47:41.534Z,66.80
2023-02-27T00:50:09.050Z,66.70
2023-02-27T00:52:35.769Z,66.80
2023-02-27T00:55:02.570Z,66.90
2023-02-27T00:57:30.966Z,66.80
2023-02-27T00:59:57.783Z,66.80
2023-02-27T01:02:25.090Z,66.90
2023-02-27T01:04:51.965Z,66.80
2023-02-27T01:07:19.175Z,67.00
2023-02-27T01:09:45.921Z,67.00
2023-02-27T01:15:48.195Z,67.00
2023-02-27T01:18:15.074Z,67.00
2023-02-27T01:20:41.784Z,67.10
2023-02-27T01:23:08.951Z,67.40
2023-02-27T01:25:35.663Z,67.50
2023-02-27T01:28:02.344Z,67.50
2023-02-27T01:30:29.689Z,67.60
2023-02-27T01:32:58.070Z,67.60
2023-02-27T01:35:24.731Z,67.50
2023-02-27T01:37:51.925Z,67.50
2023-02-27T01:40:20.010Z,67.60
2023-02-27T01:42:47.213Z,67.70
2023-02-27T01:45:32.000Z,67.70
2023-02-27T01:48:14.602Z,67.80
2023-02-27T01:50:43.328Z,67.80
2023-02-27T01:53:11.499Z,67.80
2023-02-27T01:55:38.844Z,67.80
2023-02-27T01:58:06.282Z,67.80
2023-02-27T02:00:32.885Z,67.80
2023-02-27T02:03:05.074Z,67.70
2023-02-27T02:05:33.234Z,67.80
2023-02-27T02:08:00.597Z,67.80
2023-02-27T02:10:28.241Z,67.80
2023-02-27T02:12:55.082Z,67.80
2023-02-27T02:15:24.278Z,67.90
2023-02-27T02:17:56.723Z,67.90
2023-02-27T02:20:32.645Z,67.90
2023-02-27T02:23:29.736Z,67.90
2023-02-27T02:26:15.626Z,68.00
2023-02-27T02:29:01.902Z,68.10
2023-02-27T02:31:46.646Z,68.20
2023-02-27T02:34:28.508Z,68.20
2023-02-27T02:40:38.261Z,68.30
2023-02-27T02:43:08.946Z,68.40
2023-02-27T02:45:58.425Z,68.40
2023-02-27T02:48:28.296Z,68.50
2023-02-27T02:50:57.656Z,68.60
2023-02-27T02:53:36.147Z,68.70
2023-02-27T02:56:06.763Z,68.70
2023-02-27T02:58:35.437Z,68.70
2023-02-27T03:01:05.428Z,68.70
2023-02-27T03:03:34.445Z,68.80
2023-02-27T03:06:03.643Z,68.80
2023-02-27T03:08:39.925Z,68.80
2023-02-27T03:11:09.134Z,68.90
2023-02-27T03:13:37.468Z,68.90
2023-02-27T03:16:10.787Z,69.00
2023-02-27T03:18:41.279Z,69.10
2023-02-27T03:21:10.032Z,69.10
2023-02-27T03:23:40.357Z,69.10
2023-02-27T03:26:09.916Z,69.10
2023-02-27T03:28:38.849Z,69.20
2023-02-27T03:31:10.154Z,69.20
2023-02-27T03:33:40.558Z,69.10
2023-02-27T03:36:09.581Z,69.20
2023-02-27T03:38:38.870Z,69.20
2023-02-27T03:41:08.427Z,69.30
2023-02-27T03:43:40.899Z,69.30
2023-02-27T03:46:09.780Z,69.30
2023-02-27T03:48:36.587Z,69.40
2023-02-27T03:51:03.938Z,69.40
2023-02-27T03:53:34.090Z,69.50
2023-02-27T03:56:01.381Z,69.50
2023-02-27T03:58:28.320Z,69.60
2023-02-27T04:00:56.804Z,69.60
2023-02-27T04:03:23.844Z,69.60
2023-02-27T04:05:50.813Z,69.60
2023-02-27T04:08:30.017Z,69.60
2023-02-27T04:11:06.000Z,69.60
2023-02-27T04:13:46.113Z,69.70
2023-02-27T04:16:20.678Z,69.70
2023-02-27T04:18:56.764Z,69.70
2023-02-27T04:21:28.503Z,69.80
2023-02-27T04:24:00.099Z,69.90
2023-02-27T04:26:29.622Z,69.90
2023-02-27T04:28:59.858Z,69.90
2023-02-27T04:31:30.423Z,69.90
2023-02-27T04:34:00.414Z,69.90
2023-02-27T04:36:28.088Z,70.00
2023-02-27T04:39:00.239Z,70.10
2023-02-27T04:41:30.311Z,70.10
2023-02-27T04:43:57.413Z,70.20
2023-02-27T04:46:31.222Z,70.30
2023-02-27T04:49:00.662Z,70.30
2023-02-27T04:51:31.290Z,70.30
2023-02-27T04:54:00.755Z,70.40
2023-02-27T04:56:30.993Z,70.50
2023-02-27T04:59:00.008Z,70.50
2023-02-27T05:01:31.263Z,70.60
2023-02-27T05:04:00.361Z,70.60
2023-02-27T05:06:29.360Z,70.60
2023-02-27T05:08:59.294Z,70.70
2023-02-27T05:11:29.664Z,70.70
2023-02-27T05:13:58.197Z,70.70
2023-02-27T05:16:28.089Z,70.70
2023-02-27T05:18:56.489Z,70.70
2023-02-27T05:21:26.615Z,70.70
2023-02-27T05:24:02.358Z,70.70
2023-02-27T05:26:34.771Z,70.70
2023-02-27T05:29:04.056Z,70.80
2023-02-27T05:31:34.537Z,70.80
2023-02-27T05:34:09.777Z,70.80
2023-02-27T05:36:38.783Z,70.80
2023-02-27T05:39:09.783Z,70.90
2023-02-27T05:41:38.989Z,70.90
2023-02-27T05:44:09.019Z,70.90
2023-02-27T05:46:37.318Z,70.90
2023-02-27T05:49:08.278Z,70.90
2023-02-27T05:51:36.714Z,71.00
2023-02-27T05:54:07.118Z,71.00
2023-02-27T05:56:35.999Z,71.00
2023-02-27T05:59:04.481Z,71.10
2023-02-27T06:01:31.297Z,71.10
2023-02-27T06:03:58.664Z,71.20
2023-02-27T06:06:27.421Z,71.20
2023-02-27T06:08:54.192Z,71.30
2023-02-27T06:11:21.438Z,71.30
2023-02-27T06:13:48.146Z,71.30
2023-02-27T06:16:15.924Z,71.30
2023-02-27T06:18:42.787Z,71.30
2023-02-27T06:21:20.357Z,71.40
2023-02-27T06:23:48.596Z,71.40
2023-02-27T06:26:20.960Z,71.40
2023-02-27T06:28:47.714Z,71.50
2023-02-27T06:31:14.545Z,71.50
2023-02-27T06:33:41.473Z,71.60
2023-02-27T06:36:08.446Z,71.60
2023-02-27T06:38:35.596Z,71.70
2023-02-27T06:41:04.583Z,71.80
2023-02-27T06:43:34.792Z,71.80
2023-02-27T06:46:01.915Z,71.90
2023-02-27T06:48:31.282Z,71.90
2023-02-27T06:50:58.016Z,72.00
2023-02-27T06:53:25.421Z,72.00
2023-02-27T06:55:52.202Z,72.10
2023-02-27T06:58:20.719Z,72.10
2023-02-27T07:00:47.485Z,72.20
2023-02-27T07:03:15.550Z,72.20
2023-02-27T07:05:42.675Z,72.20
2023-02-27T07:08:09.824Z,72.20
2023-02-27T07:10:37.005Z,72.30
2023-02-27T07:13:03.874Z,72.30
2023-02-27T07:15:31.967Z,72.50
2023-02-27T07:17:58.612Z,72.50
2023-02-27T07:20:25.573Z,72.60
2023-02-27T07:22:52.270Z,72.60
2023-02-27T07:25:19.229Z,72.60
2023-02-27T07:27:50.744Z,72.60
2023-02-27T07:30:17.608Z,72.60
2023-02-27T07:32:45.658Z,72.70
2023-02-27T07:35:12.329Z,72.70
2023-02-27T07:37:39.404Z,72.60
2023-02-27T07:40:07.546Z,73.00
2023-02-27T07:42:34.361Z,72.80
2023-02-27T07:45:09.698Z,72.70
2023-02-27T07:47:36.481Z,73.00
2023-02-27T07:50:04.893Z,72.80
2023-02-27T07:52:31.932Z,72.90
2023-02-27T07:54:58.662Z,72.70
2023-02-27T07:57:25.461Z,72.50
2023-02-27T07:59:52.313Z,72.60
2023-02-27T08:02:19.097Z,72.70
2023-02-27T08:04:45.893Z,72.90
2023-02-27T08:07:14.033Z,73.30
2023-02-27T08:09:41.078Z,73.60
2023-02-27T08:12:07.924Z,73.30
2023-02-27T08:14:34.693Z,73.30
2023-02-27T08:17:09.354Z,72.60
2023-02-27T08:19:36.043Z,71.80
2023-02-27T08:22:03.644Z,71.40
2023-02-27T08:24:31.788Z,71.40
2023-02-27T08:27:21.982Z,70.30
2023-02-27T08:29:49.109Z,69.40
2023-02-27T08:32:20.845Z,69.00
2023-02-27T08:34:47.660Z,68.40
2023-02-27T08:37:14.340Z,67.50
2023-02-27T08:39:42.813Z,67.90
2023-02-27T08:42:10.113Z,67.50
2023-02-27T08:44:36.881Z,66.70
2023-02-27T08:47:03.662Z,66.20
2023-02-27T08:49:30.551Z,66.30
2023-02-27T08:51:57.295Z,66.40
2023-02-27T08:54:24.184Z,66.20
2023-02-27T08:56:52.701Z,65.10
2023-02-27T08:59:19.433Z,63.30
2023-02-27T09:01:46.213Z,64.40
2023-02-27T09:04:12.862Z,63.20
2023-02-27T09:06:39.571Z,63.00
2023-02-27T09:09:06.723Z,63.60
2023-02-27T09:11:33.599Z,63.70
2023-02-27T09:14:06.348Z,62.00
2023-02-27T09:16:33.350Z,61.90
2023-02-27T09:19:00.186Z,60.90
2023-02-27T09:21:27.448Z,60.90
2023-02-27T09:23:55.076Z,60.70
2023-02-27T09:26:28.940Z,60.90
2023-02-27T09:29:03.936Z,58.70
2023-02-27T09:31:33.161Z,58.20
2023-02-27T09:34:01.612Z,60.80
2023-02-27T09:36:28.676Z,59.20
2023-02-27T09:38:55.845Z,58.20
2023-02-27T09:41:29.268Z,58.60
2023-02-27T09:43:56.393Z,56.30
2023-02-27T09:46:25.556Z,57.80
2023-02-27T09:48:54.121Z,56.30
2023-02-27T09:51:22.811Z,55.70
2023-02-27T09:53:53.084Z,56.50
2023-02-27T09:56:23.289Z,57.70
2023-02-27T09:58:51.585Z,57.90
2023-02-27T10:01:20.733Z,53.50
2023-02-27T10:03:54.976Z,54.30
2023-02-27T10:06:39.084Z,52.40
2023-02-27T10:09:12.297Z,50.10
2023-02-27T10:11:45.515Z,54.90
2023-02-27T10:14:22.467Z,53.80
2023-02-27T10:16:58.141Z,51.00
2023-02-27T10:19:28.497Z,49.80
2023-02-27T10:21:56.820Z,50.80
2023-02-27T10:24:27.876Z,50.50
2023-02-27T10:26:55.369Z,51.20
2023-02-27T10:29:25.140Z,50.60
2023-02-27T10:31:54.466Z,52.40
2023-02-27T10:34:21.686Z,49.60
2023-02-27T10:36:49.923Z,50.10
2023-02-27T10:39:18.388Z,48.40
2023-02-27T10:41:45.737Z,48.00
2023-02-27T10:44:15.661Z,48.50
2023-02-27T10:46:42.425Z,49.10
2023-02-27T10:49:13.676Z,49.40
2023-02-27T10:51:40.454Z,49.10
2023-02-27T10:54:20.741Z,48.70
2023-02-27T10:56:49.146Z,47.10
2023-02-27T10:59:20.472Z,51.20
2023-02-27T11:01:49.080Z,51.20
2023-02-27T11:04:23.714Z,50.40
2023-02-27T11:06:51.546Z,48.70
2023-02-27T11:09:23.995Z,48.10
2023-02-27T11:11:51.958Z,49.00
2023-02-27T11:14:26.684Z,50.20
2023-02-27T11:16:54.626Z,50.30
2023-02-27T11:19:26.009Z,49.60
2023-02-27T11:22:03.359Z,49.40
2023-02-27T11:24:31.924Z,50.00
2023-02-27T11:26:59.739Z,51.90
2023-02-27T11:29:26.433Z,52.50
2023-02-27T11:31:54.299Z,51.80
2023-02-27T11:34:26.927Z,52.70
2023-02-27T11:36:55.762Z,52.10
2023-02-27T11:39:27.216Z,50.60
2023-02-27T11:41:58.945Z,51.20
2023-02-27T11:44:49.911Z,52.30
2023-02-27T11:47:19.791Z,51.40
2023-02-27T11:49:59.937Z,51.70
2023-02-27T11:52:31.528Z,51.70
2023-02-27T11:55:00.971Z,51.40
2023-02-27T11:57:31.547Z,53.00
2023-02-27T12:00:01.493Z,52.60
2023-02-27T12:02:30.321Z,52.00
2023-02-27T12:04:59.842Z,51.90
2023-02-27T12:07:29.370Z,49.70
2023-02-27T12:09:59.900Z,50.60
2023-02-27T12:12:31.832Z,49.60
2023-02-27T12:15:04.245Z,51.50
2023-02-27T12:17:33.813Z,51.20
2023-02-27T12:20:04.671Z,49.80
2023-02-27T12:22:40.494Z,51.20
2023-02-27T12:25:12.377Z,49.90
2023-02-27T12:27:46.204Z,49.70
2023-02-27T12:30:15.549Z,51.10
2023-02-27T12:32:43.278Z,50.00
2023-02-27T12:35:13.756Z,50.30
2023-02-27T12:37:40.481Z,49.90
2023-02-27T12:40:09.241Z,50.50
2023-02-27T12:42:43.016Z,49.60
2023-02-27T12:45:28.546Z,50.70
2023-02-27T12:48:02.089Z,48.50
2023-02-27T12:50:32.790Z,49.10
2023-02-27T12:53:02.477Z,49.30
2023-02-27T12:55:31.121Z,49.20
2023-02-27T12:58:06.305Z,49.50
2023-02-27T13:00:54.745Z,49.40
2023-02-27T13:03:24.888Z,48.40
2023-02-27T13:05:58.349Z,48.80
2023-02-27T13:08:29.876Z,46.70
2023-02-27T13:10:58.861Z,46.80
2023-02-27T13:13:27.377Z,48.30
2023-02-27T13:15:55.202Z,47.90
2023-02-27T13:18:31.163Z,49.90
2023-02-27T13:21:00.477Z,50.20
2023-02-27T13:23:30.394Z,50.10
2023-02-27T13:25:58.686Z,50.70
2023-02-27T13:28:27.289Z,51.10
2023-02-27T13:30:59.694Z,50.70
2023-02-27T13:33:31.280Z,51.10
2023-02-27T13:36:09.320Z,50.80
2023-02-27T13:38:43.446Z,51.90
2023-02-27T13:41:29.563Z,52.00
2023-02-27T13:43:57.214Z,51.40
2023-02-27T13:46:25.755Z,51.50
2023-02-27T13:48:53.764Z,51.30
2023-02-27T13:51:41.237Z,51.10
2023-02-27T13:54:15.404Z,51.20
2023-02-27T13:56:43.624Z,52.00
2023-02-27T13:59:11.193Z,51.70
2023-02-27T14:01:38.697Z,52.30
2023-02-27T14:04:07.209Z,52.20
2023-02-27T14:06:42.983Z,52.30
2023-02-27T14:09:15.122Z,52.60
2023-02-27T14:11:50.712Z,52.90
2023-02-27T14:14:35.198Z,53.00
2023-02-27T14:17:03.609Z,52.80
2023-02-27T14:19:51.873Z,52.50
2023-02-27T14:22:35.714Z,52.60
2023-02-27T14:25:12.101Z,52.90
2023-02-27T14:27:46.620Z,52.60
2023-02-27T14:30:22.352Z,52.30
2023-02-27T14:32:54.426Z,52.30
2023-02-27T14:35:21.619Z,51.90
2023-02-27T14:37:48.404Z,52.10
2023-02-27T14:40:29.291Z,52.50
2023-02-27T14:43:01.111Z,52.40
2023-02-27T14:45:28.722Z,52.00
2023-02-27T14:47:56.055Z,51.60
2023-02-27T14:50:25.255Z,52.00
2023-02-27T14:52:52.670Z,52.50
2023-02-27T14:55:27.927Z,52.60
2023-02-27T14:57:55.916Z,52.80
2023-02-27T15:00:30.616Z,53.00
2023-02-27T15:02:57.964Z,53.20
2023-02-27T15:05:29.124Z,53.40
2023-02-27T15:07:55.818Z,53.50
2023-02-27T15:10:35.469Z,53.50
2023-02-27T15:13:02.781Z,53.20
2023-02-27T15:15:29.856Z,53.10
2023-02-27T15:17:56.687Z,53.40
2023-02-27T15:20:25.496Z,53.20
2023-02-27T15:22:54.602Z,53.70
2023-02-27T15:25:31.821Z,53.80
2023-02-27T15:28:02.002Z,54.00
2023-02-27T15:30:29.222Z,53.70
2023-02-27T15:32:56.339Z,54.00
2023-02-27T15:35:24.684Z,53.90
2023-02-27T15:37:52.962Z,54.10
2023-02-27T15:40:21.370Z,54.00
2023-02-27T15:42:49.888Z,54.20
2023-02-27T15:45:20.009Z,54.40
2023-02-27T15:47:46.990Z,54.50
2023-02-27T15:50:34.053Z,54.70
2023-02-27T15:53:03.386Z,54.80
2023-02-27T15:55:32.069Z,54.70
2023-02-27T15:58:03.973Z,54.50
2023-02-27T16:00:31.879Z,54.50
2023-02-27T16:02:59.414Z,54.20
2023-02-27T16:05:27.726Z,54.10
2023-02-27T16:07:56.202Z,54.20
2023-02-27T16:10:24.813Z,54.40
2023-02-27T16:12:51.602Z,54.70
2023-02-27T16:15:27.254Z,54.80
2023-02-27T16:17:55.567Z,55.00
2023-02-27T16:20:30.673Z,55.10
2023-02-27T16:23:04.495Z,55.00
2023-02-27T16:25:31.819Z,55.30
2023-02-27T16:27:58.657Z,55.30
2023-02-27T16:30:27.688Z,55.40
2023-02-27T16:32:59.933Z,55.50
2023-02-27T16:35:27.255Z,55.70
2023-02-27T16:37:59.782Z,55.70
2023-02-27T16:40:27.628Z,55.80
2023-02-27T16:42:54.544Z,55.90
2023-02-27T16:45:22.900Z,56.00
2023-02-27T16:47:52.233Z,56.20
2023-02-27T16:50:20.764Z,56.20
2023-02-27T16:52:47.664Z,56.40
2023-02-27T16:55:16.757Z,56.40
2023-02-27T16:57:43.817Z,56.40
2023-02-27T17:00:11.960Z,56.50
2023-02-27T17:02:39.083Z,56.50
2023-02-27T17:05:08.266Z,56.60
2023-02-27T17:07:35.197Z,56.80
2023-02-27T17:10:02.111Z,56.80
2023-02-27T17:12:29.088Z,57.00
2023-02-27T17:14:56.463Z,57.00
2023-02-27T17:17:23.355Z,57.10
2023-02-27T17:19:50.188Z,57.30
2023-02-27T17:22:18.911Z,57.30
2023-02-27T17:24:47.836Z,57.50
2023-02-27T17:27:14.582Z,57.50
2023-02-27T17:29:41.735Z,57.50
2023-02-27T17:32:08.784Z,57.60
2023-02-27T17:34:36.028Z,57.80
2023-02-27T17:37:02.860Z,58.00
2023-02-27T17:39:31.046Z,58.20
2023-02-27T17:41:58.176Z,58.10
2023-02-27T17:44:24.940Z,58.10
2023-02-27T17:46:52.057Z,58.20
2023-02-27T17:49:18.770Z,58.30
2023-02-27T17:51:45.536Z,58.30
2023-02-27T17:54:12.856Z,58.50
2023-02-27T17:56:40.968Z,58.60
2023-02-27T17:59:08.574Z,58.70
2023-02-27T18:01:37.139Z,58.90
2023-02-27T18:04:05.059Z,58.80
2023-02-27T18:06:32.029Z,59.00
2023-02-27T18:09:26.240Z,58.90
2023-02-27T18:11:54.627Z,59.40
2023-02-27T18:14:21.397Z,59.10
2023-02-27T18:16:49.505Z,59.50
2023-02-27T18:19:16.454Z,59.50
2023-02-27T18:21:46.920Z,59.50
2023-02-27T18:24:16.703Z,59.50
2023-02-27T18:26:44.133Z,59.70
2023-02-27T18:29:14.116Z,59.80
2023-02-27T18:31:43.257Z,59.80
2023-02-27T18:34:10.182Z,59.90
2023-02-27T18:36:37.563Z,60.00
2023-02-27T18:39:05.056Z,60.10
2023-02-27T18:41:32.081Z,60.20
2023-02-27T18:43:58.833Z,60.20
2023-02-27T18:46:28.061Z,60.30
2023-02-27T18:48:55.313Z,60.30
2023-02-27T18:51:22.106Z,60.40
2023-02-27T18:53:49.696Z,60.60
2023-02-27T18:56:17.352Z,60.70
2023-02-27T18:58:44.222Z,60.80
2023-02-27T19:01:17.823Z,60.80
2023-02-27T19:03:46.251Z,61.10
2023-02-27T19:06:13.738Z,61.20
2023-02-27T19:08:40.506Z,61.30
2023-02-27T19:11:07.236Z,61.40
2023-02-27T19:13:34.369Z,61.40
2023-02-27T19:16:03.321Z,61.70
2023-02-27T19:18:30.107Z,61.60
2023-02-27T19:21:01.897Z,61.70
2023-02-27T19:23:29.230Z,61.70
2023-02-27T19:25:59.334Z,61.70
2023-02-27T19:28:25.954Z,62.00
2023-02-27T19:30:55.747Z,62.30
2023-02-27T19:33:22.517Z,62.40
2023-02-27T19:35:49.259Z,62.30
2023-02-27T19:38:17.800Z,62.40
2023-02-27T19:40:44.514Z,62.40
2023-02-27T19:43:15.234Z,62.50
2023-02-27T19:45:42.112Z,62.50
2023-02-27T19:48:09.147Z,62.50
2023-02-27T19:50:36.157Z,63.00
2023-02-27T19:53:05.684Z,62.80
2023-02-27T19:55:33.792Z,63.00
2023-02-27T19:58:01.448Z,62.90
2023-02-27T20:00:28.235Z,63.10
2023-02-27T20:02:55.003Z,63.00
2023-02-27T20:05:21.776Z,63.00
2023-02-27T20:07:48.880Z,63.40
2023-02-27T20:10:15.906Z,63.30
2023-02-27T20:12:44.035Z,63.20
2023-02-27T20:15:13.042Z,63.30
2023-02-27T20:17:42.181Z,62.90
2023-02-27T20:20:09.706Z,63.00
2023-02-27T20:22:38.167Z,63.00
2023-02-27T20:25:05.053Z,63.40
2023-02-27T20:27:33.294Z,63.50
2023-02-27T20:30:01.940Z,63.60
2023-02-27T20:32:28.757Z,63.30
2023-02-27T20:35:00.638Z,63.60
2023-02-27T20:37:32.298Z,63.80
2023-02-27T20:39:58.994Z,63.90
2023-02-27T20:42:25.712Z,64.00
2023-02-27T20:44:53.184Z,64.00
2023-02-27T20:47:21.332Z,63.80
2023-02-27T20:49:48.040Z,64.00
2023-02-27T20:52:15.302Z,64.00
2023-02-27T20:54:42.027Z,64.10
2023-02-27T20:57:09.259Z,64.10
2023-02-27T20:59:36.004Z,64.40
2023-02-27T21:02:06.621Z,64.50
2023-02-27T21:04:43.591Z,64.30
2023-02-27T21:07:11.101Z,64.90
2023-02-27T21:09:38.338Z,64.60
2023-02-27T21:12:05.855Z,64.60
2023-02-27T21:14:32.897Z,64.70
2023-02-27T21:17:02.328Z,64.80
2023-02-27T21:19:29.152Z,64.70
2023-02-27T21:21:57.305Z,65.00
2023-02-27T21:24:23.950Z,65.00
2023-02-27T21:26:50.676Z,64.90
2023-02-27T21:29:18.152Z,65.10
2023-02-27T21:31:48.916Z,65.10
2023-02-27T21:34:16.938Z,65.10
2023-02-27T21:36:44.337Z,65.40
2023-02-27T21:39:14.208Z,65.40
2023-02-27T21:41:42.099Z,65.60
2023-02-27T21:44:09.259Z,65.20
2023-02-27T21:46:35.977Z,65.70
2023-02-27T21:49:02.784Z,65.60
2023-02-27T21:51:39.931Z,65.70
2023-02-27T21:54:07.320Z,65.80
2023-02-27T21:56:35.404Z,65.80
2023-02-27T21:59:02.300Z,65.90
2023-02-27T22:01:30.719Z,65.90
2023-02-27T22:03:57.927Z,66.00
2023-02-27T22:06:25.461Z,65.90
2023-02-27T22:08:53.588Z,66.00
2023-02-27T22:11:20.288Z,66.00
2023-02-27T22:13:48.745Z,66.20
2023-02-27T22:16:15.511Z,66.40
2023-02-27T22:18:42.228Z,66.40
2023-02-27T22:21:09.567Z,66.40
2023-02-27T22:23:36.389Z,66.20
2023-02-27T22:26:04.026Z,66.60
2023-02-27T22:28:31.395Z,66.70
2023-02-27T22:31:11.320Z,66.70
2023-02-27T22:33:38.638Z,66.80
2023-02-27T22:36:06.712Z,66.70
2023-02-27T22:38:33.477Z,67.10
2023-02-27T22:41:07.023Z,67.20
2023-02-27T22:43:34.852Z,67.10
2023-02-27T22:46:05.053Z,67.10
2023-02-27T22:48:34.474Z,67.10
2023-02-27T22:51:03.175Z,67.10
2023-02-27T22:53:30.468Z,67.10
2023-02-27T22:55:57.173Z,67.30
2023-02-27T22:58:24.138Z,67.40
2023-02-27T23:00:51.306Z,67.50
2023-02-27T23:03:18.042Z,67.50
2023-02-27T23:05:46.401Z,67.60
2023-02-27T23:08:13.145Z,67.50
2023-02-27T23:10:39.838Z,67.70
2023-02-27T23:13:06.501Z,67.80
2023-02-27T23:15:33.832Z,67.70
2023-02-27T23:18:00.581Z,67.60
2023-02-27T23:20:27.901Z,67.90
2023-02-27T23:22:55.928Z,67.90
2023-02-27T23:25:22.741Z,68.00
2023-02-27T23:27:49.382Z,68.10
2023-02-27T23:30:16.746Z,68.10
2023-02-27T23:32:44.137Z,68.20
2023-02-27T23:35:11.587Z,68.00
2023-02-27T23:37:38.602Z,68.20
2023-02-27T23:40:07.711Z,68.30
2023-02-27T23:42:37.477Z,68.30
2023-02-27T23:45:05.320Z,68.30
2023-02-27T23:47:44.620Z,68.50
2023-02-27T23:50:11.796Z,68.60
2023-02-27T23:52:38.491Z,68.50
2023-02-27T23:55:07.566Z,68.60
2023-02-27T23:57:35.038Z,68.70
